createdAt,value
2017-07-25T00:00:27.542Z,23.19
2017-07-25T00:02:53.909Z,23.20
2017-07-25T00:05:20.282Z,23.19
2017-07-25T00:07:46.707Z,23.19
2017-07-25T00:10:13.075Z,23.19
2017-07-25T00:12:39.463Z,23.18
2017-07-25T00:15:05.827Z,23.18
2017-07-25T00:17:32.967Z,23.18
2017-07-25T00:19:59.412Z,23.18
2017-07-25T00:22:25.790Z,23.18
2017-07-25T00:24:52.203Z,23.17
2017-07-25T00:27:18.573Z,23.16
2017-07-25T00:29:44.983Z,23.18
2017-07-25T00:32:11.402Z,23.17
2017-07-25T00:34:37.802Z,23.17
2017-07-25T00:37:04.170Z,23.16
2017-07-25T00:39:30.567Z,23.17
2017-07-25T00:41:56.960Z,23.16
2017-07-25T00:44:23.371Z,23.16
2017-07-25T00:46:49.743Z,23.16
2017-07-25T00:49:16.119Z,23.15
2017-07-25T00:51:42.472Z,23.15
2017-07-25T00:54:08.854Z,23.16
2017-07-25T00:56:35.218Z,23.15
2017-07-25T00:59:01.594Z,23.15
2017-07-25T01:01:27.974Z,23.15
2017-07-25T01:03:54.490Z,23.14
2017-07-25T01:06:20.915Z,23.14
2017-07-25T01:08:47.303Z,23.14
2017-07-25T01:11:13.695Z,23.14
2017-07-25T01:13:40.824Z,23.14
2017-07-25T01:16:07.243Z,23.14
2017-07-25T01:18:33.642Z,23.14
2017-07-25T01:21:00.019Z,23.14
2017-07-25T01:23:26.382Z,23.13
2017-07-25T01:25:52.779Z,23.13
2017-07-25T01:28:19.139Z,23.12
2017-07-25T01:30:45.508Z,23.12
2017-07-25T01:33:12.631Z,23.12
2017-07-25T01:35:39.015Z,23.11
2017-07-25T01:38:05.391Z,23.12
2017-07-25T01:40:32.031Z,23.11
2017-07-25T01:42:58.551Z,23.11
2017-07-25T01:45:24.918Z,23.11
2017-07-25T01:47:51.295Z,23.10
2017-07-25T01:50:17.663Z,23.10
2017-07-25T01:52:44.040Z,23.09
2017-07-25T01:55:10.406Z,23.10
2017-07-25T01:57:36.795Z,23.09
2017-07-25T02:00:03.915Z,23.09
2017-07-25T02:02:30.279Z,23.09
2017-07-25T02:04:56.647Z,23.09
2017-07-25T02:07:23.787Z,23.09
2017-07-25T02:09:50.151Z,23.09
2017-07-25T02:12:16.515Z,23.09
2017-07-25T02:14:43.666Z,23.08
2017-07-25T02:17:10.031Z,23.08
2017-07-25T02:19:37.163Z,23.08
2017-07-25T02:22:03.531Z,23.08
2017-07-25T02:24:29.894Z,23.08
2017-07-25T02:26:57.021Z,23.07
2017-07-25T02:29:23.390Z,23.07
2017-07-25T02:31:49.760Z,23.08
2017-07-25T02:34:16.898Z,23.07
2017-07-25T02:36:43.318Z,23.07
2017-07-25T02:39:09.671Z,23.07
2017-07-25T02:41:36.065Z,23.07
2017-07-25T02:44:02.436Z,23.06
2017-07-25T02:46:28.802Z,23.06
2017-07-25T02:48:55.196Z,23.07
2017-07-25T02:51:21.563Z,23.06
2017-07-25T02:53:47.945Z,23.07
2017-07-25T02:56:14.334Z,23.06
2017-07-25T02:58:40.703Z,23.06
2017-07-25T03:01:07.089Z,23.05
2017-07-25T03:03:33.450Z,23.05
2017-07-25T03:05:59.837Z,23.06
2017-07-25T03:08:26.202Z,23.06
2017-07-25T03:10:52.564Z,23.05
2017-07-25T03:13:18.940Z,23.05
2017-07-25T03:15:45.347Z,23.05
2017-07-25T03:18:11.751Z,23.05
2017-07-25T03:20:38.135Z,23.04
2017-07-25T03:23:04.515Z,23.04
2017-07-25T03:25:30.880Z,23.04
2017-07-25T03:27:58.062Z,23.04
2017-07-25T03:30:24.448Z,23.03
2017-07-25T03:32:50.809Z,23.04
2017-07-25T03:35:17.212Z,23.03
2017-07-25T03:37:43.586Z,23.03
2017-07-25T03:40:09.947Z,23.03
2017-07-25T03:42:36.312Z,23.03
2017-07-25T03:45:02.668Z,23.03
2017-07-25T03:47:29.037Z,23.03
2017-07-25T03:49:55.396Z,23.02
2017-07-25T03:52:22.563Z,23.03
2017-07-25T03:54:49.686Z,23.02
2017-07-25T03:57:16.052Z,23.02
2017-07-25T03:59:42.409Z,23.02
2017-07-25T04:02:08.809Z,23.02
2017-07-25T04:04:35.199Z,23.02
2017-07-25T04:07:01.565Z,23.01
2017-07-25T04:09:27.962Z,23.02
2017-07-25T04:11:54.323Z,23.01
2017-07-25T04:14:20.697Z,23.01
2017-07-25T04:16:47.081Z,23.01
2017-07-25T04:19:13.442Z,23.00
2017-07-25T04:21:39.839Z,23.00
2017-07-25T04:24:06.206Z,23.00
2017-07-25T04:26:32.630Z,23.00
2017-07-25T04:28:58.983Z,22.99
2017-07-25T04:31:25.371Z,22.99
2017-07-25T04:33:52.511Z,22.99
2017-07-25T04:36:18.879Z,22.99
2017-07-25T04:38:45.322Z,22.99
2017-07-25T04:41:11.688Z,22.99
2017-07-25T04:43:38.067Z,22.99
2017-07-25T04:46:04.447Z,22.98
2017-07-25T04:48:30.827Z,22.98
2017-07-25T04:50:57.198Z,22.98
2017-07-25T04:53:24.346Z,22.97
2017-07-25T04:55:50.710Z,22.97
2017-07-25T04:58:17.879Z,22.97
2017-07-25T05:00:45.014Z,22.97
2017-07-25T05:03:11.394Z,22.97
2017-07-25T05:05:38.537Z,22.97
2017-07-25T05:08:04.907Z,22.97
2017-07-25T05:10:32.219Z,22.96
2017-07-25T05:12:58.595Z,22.97
2017-07-25T05:15:24.976Z,22.97
2017-07-25T05:17:52.240Z,22.96
2017-07-25T05:20:18.617Z,22.97
2017-07-25T05:22:45.146Z,22.97
2017-07-25T05:25:11.516Z,22.97
2017-07-25T05:27:38.028Z,22.96
2017-07-25T05:30:04.396Z,22.96
2017-07-25T05:32:30.931Z,22.96
2017-07-25T05:34:57.407Z,22.95
2017-07-25T05:37:24.567Z,22.96
2017-07-25T05:39:50.926Z,22.95
2017-07-25T05:42:18.107Z,22.95
2017-07-25T05:44:44.467Z,22.95
2017-07-25T05:47:10.854Z,22.95
2017-07-25T05:49:37.247Z,22.94
2017-07-25T05:52:03.611Z,22.95
2017-07-25T05:54:30.011Z,22.94
2017-07-25T05:59:29.191Z,22.94
2017-07-25T06:01:55.580Z,22.95
2017-07-25T06:04:21.951Z,22.94
2017-07-25T06:06:48.356Z,22.95
2017-07-25T06:09:14.744Z,22.95
2017-07-25T06:11:41.319Z,22.95
2017-07-25T06:14:07.815Z,22.95
2017-07-25T06:16:34.542Z,22.97
2017-07-25T06:19:01.895Z,22.98
2017-07-25T06:21:28.270Z,22.97
2017-07-25T06:23:55.399Z,22.98
2017-07-25T06:26:21.784Z,22.98
2017-07-25T06:28:48.933Z,22.97
2017-07-25T06:31:16.524Z,22.97
2017-07-25T06:33:42.885Z,22.97
2017-07-25T06:36:10.028Z,22.97
2017-07-25T06:38:36.414Z,22.97
2017-07-25T06:41:02.802Z,22.97
2017-07-25T06:43:29.187Z,22.97
2017-07-25T06:45:55.587Z,22.97
2017-07-25T06:48:21.956Z,22.97
2017-07-25T06:50:48.324Z,22.97
2017-07-25T06:53:14.687Z,22.97
2017-07-25T06:55:41.054Z,22.97
2017-07-25T06:58:08.226Z,22.96
2017-07-25T07:00:34.601Z,22.96
2017-07-25T07:03:00.972Z,22.97
2017-07-25T07:05:27.362Z,22.96
2017-07-25T07:07:53.719Z,22.96
2017-07-25T07:10:20.091Z,22.96
2017-07-25T07:12:46.460Z,22.96
2017-07-25T07:15:12.838Z,22.96
2017-07-25T07:17:39.201Z,22.96
2017-07-25T07:20:05.683Z,22.96
2017-07-25T07:22:32.104Z,22.97
2017-07-25T07:24:58.479Z,22.97
2017-07-25T07:27:26.243Z,22.97
2017-07-25T07:29:53.132Z,22.98
2017-07-25T07:32:19.479Z,22.98
2017-07-25T07:34:45.897Z,23.00
2017-07-25T07:37:13.035Z,23.00
2017-07-25T07:39:39.382Z,23.00
2017-07-25T07:42:05.789Z,23.00
2017-07-25T07:44:32.187Z,22.99
2017-07-25T07:46:58.550Z,23.00
2017-07-25T07:49:24.952Z,23.00
2017-07-25T07:51:51.319Z,23.00
2017-07-25T07:54:17.715Z,22.99
2017-07-25T07:56:44.847Z,23.00
2017-07-25T07:59:11.212Z,23.00
2017-07-25T08:01:37.607Z,22.99
2017-07-25T08:04:04.001Z,23.00
2017-07-25T08:06:30.479Z,23.00
2017-07-25T08:08:56.896Z,23.00
2017-07-25T08:11:23.269Z,23.01
2017-07-25T08:13:49.638Z,23.00
2017-07-25T08:16:16.019Z,23.01
2017-07-25T08:18:42.362Z,23.02
2017-07-25T08:21:08.743Z,23.03
2017-07-25T08:23:35.114Z,23.04
2017-07-25T08:26:01.534Z,23.04
2017-07-25T08:28:27.903Z,23.04
2017-07-25T08:30:54.318Z,23.05
2017-07-25T08:33:20.764Z,23.05
2017-07-25T08:35:47.156Z,23.06
2017-07-25T08:38:13.640Z,23.06
2017-07-25T08:40:39.998Z,23.08
2017-07-25T08:43:07.160Z,23.06
2017-07-25T08:45:34.295Z,23.06
2017-07-25T08:48:00.666Z,23.06
2017-07-25T08:50:27.816Z,23.05
2017-07-25T08:52:54.255Z,23.05
2017-07-25T08:55:20.620Z,23.05
2017-07-25T08:57:47.465Z,23.05
2017-07-25T09:00:13.837Z,23.05
2017-07-25T09:02:40.218Z,23.05
2017-07-25T09:05:06.588Z,23.06
2017-07-25T09:07:32.957Z,23.06
2017-07-25T09:09:59.328Z,23.06
2017-07-25T09:12:25.718Z,23.06
2017-07-25T09:14:52.119Z,23.06
2017-07-25T09:17:18.487Z,23.06
2017-07-25T09:19:44.870Z,23.06
2017-07-25T09:22:11.234Z,23.05
2017-07-25T09:24:37.608Z,23.05
2017-07-25T09:27:03.962Z,23.05
2017-07-25T09:29:30.315Z,23.05
2017-07-25T09:31:56.710Z,23.04
2017-07-25T09:34:23.071Z,23.05
2017-07-25T09:36:49.455Z,23.04
2017-07-25T09:39:15.823Z,23.05
2017-07-25T09:41:42.238Z,23.04
2017-07-25T09:44:08.608Z,23.04
2017-07-25T09:46:34.994Z,23.04
2017-07-25T09:49:01.360Z,23.04
2017-07-25T09:51:27.731Z,23.04
2017-07-25T09:53:54.116Z,23.04
2017-07-25T09:56:20.475Z,23.03
2017-07-25T09:58:47.636Z,23.04
2017-07-25T10:01:13.999Z,23.05
2017-07-25T10:03:40.379Z,23.04
2017-07-25T10:06:06.759Z,23.04
2017-07-25T10:08:33.130Z,23.04
2017-07-25T10:10:59.679Z,23.04
2017-07-25T10:13:26.226Z,23.03
2017-07-25T10:15:52.599Z,23.04
2017-07-25T10:18:18.967Z,23.03
2017-07-25T10:20:45.355Z,23.02
2017-07-25T10:23:11.723Z,23.02
2017-07-25T10:25:38.107Z,23.02
2017-07-25T10:28:05.238Z,23.02
2017-07-25T10:30:31.595Z,23.02
2017-07-25T10:32:57.992Z,23.02
2017-07-25T10:35:25.115Z,23.02
2017-07-25T10:37:51.503Z,23.01
2017-07-25T10:40:18.628Z,23.02
2017-07-25T10:42:45.026Z,23.02
2017-07-25T10:45:12.188Z,23.02
2017-07-25T10:47:39.342Z,23.01
2017-07-25T10:50:06.523Z,23.02
2017-07-25T10:52:33.643Z,23.01
2017-07-25T10:55:00.014Z,23.02
2017-07-25T10:57:26.403Z,23.01
2017-07-25T10:59:52.779Z,23.01
2017-07-25T11:02:19.350Z,23.00
2017-07-25T11:04:45.720Z,23.00
2017-07-25T11:07:12.087Z,23.00
2017-07-25T11:09:38.459Z,23.00
2017-07-25T11:12:04.844Z,23.00
2017-07-25T11:17:03.938Z,23.00
2017-07-25T11:19:31.086Z,22.99
2017-07-25T11:21:57.456Z,22.99
2017-07-25T11:24:24.579Z,22.98
2017-07-25T11:26:50.953Z,23.00
2017-07-25T11:29:17.371Z,23.00
2017-07-25T11:31:43.736Z,23.00
2017-07-25T11:34:10.144Z,23.00
2017-07-25T11:36:36.511Z,23.01
2017-07-25T11:39:02.874Z,23.02
2017-07-25T11:41:29.231Z,23.04
2017-07-25T11:43:55.617Z,23.04
2017-07-25T11:46:22.747Z,23.02
2017-07-25T11:48:49.148Z,23.02
2017-07-25T11:51:16.279Z,23.03
2017-07-25T11:53:42.635Z,23.03
2017-07-25T11:56:09.050Z,23.03
2017-07-25T11:58:35.422Z,23.03
2017-07-25T12:01:01.793Z,23.03
2017-07-25T12:03:28.158Z,23.03
2017-07-25T12:05:54.532Z,23.03
2017-07-25T12:08:20.893Z,23.05
2017-07-25T12:10:47.278Z,23.05
2017-07-25T12:13:13.655Z,23.05
2017-07-25T12:15:40.080Z,23.07
2017-07-25T12:18:06.456Z,23.07
2017-07-25T12:20:33.847Z,23.07
2017-07-25T12:23:00.202Z,23.07
2017-07-25T12:25:26.564Z,23.07
2017-07-25T12:27:52.922Z,23.08
2017-07-25T12:30:19.291Z,23.08
2017-07-25T12:32:45.662Z,23.08
2017-07-25T12:35:12.796Z,23.09
2017-07-25T12:37:39.176Z,23.10
2017-07-25T12:40:05.592Z,23.11
2017-07-25T12:42:32.152Z,23.11
2017-07-25T12:44:58.510Z,23.12
2017-07-25T12:47:24.885Z,23.12
2017-07-25T12:49:51.263Z,23.12
2017-07-25T12:52:17.679Z,23.15
2017-07-25T12:54:44.050Z,23.15
2017-07-25T12:57:10.420Z,23.15
2017-07-25T12:59:36.792Z,23.14
2017-07-25T13:02:03.152Z,23.15
2017-07-25T13:04:29.516Z,23.15
2017-07-25T13:06:55.899Z,23.16
2017-07-25T13:09:22.267Z,23.17
2017-07-25T13:11:48.659Z,23.16
2017-07-25T13:14:15.030Z,23.19
2017-07-25T13:16:41.414Z,23.18
2017-07-25T13:19:07.779Z,23.18
2017-07-25T13:21:34.144Z,23.18
2017-07-25T13:24:00.540Z,23.18
2017-07-25T13:26:26.902Z,23.18
2017-07-25T13:28:53.272Z,23.18
2017-07-25T13:31:19.661Z,23.18
2017-07-25T13:33:46.030Z,23.18
2017-07-25T13:36:13.158Z,23.18
2017-07-25T13:38:39.560Z,23.18
2017-07-25T13:41:06.692Z,23.19
2017-07-25T13:43:33.063Z,23.19
2017-07-25T13:46:00.236Z,23.17
2017-07-25T13:48:27.367Z,23.18
2017-07-25T13:50:53.844Z,23.20
2017-07-25T13:53:20.245Z,23.19
2017-07-25T13:55:46.614Z,23.18
2017-07-25T13:58:12.980Z,23.21
2017-07-25T14:00:39.364Z,23.21
2017-07-25T14:03:05.763Z,23.20
2017-07-25T14:05:32.147Z,23.20
2017-07-25T14:07:58.526Z,23.19
2017-07-25T14:10:24.904Z,23.19
2017-07-25T14:12:51.289Z,23.19
2017-07-25T14:15:17.659Z,23.20
2017-07-25T14:17:44.808Z,23.20
2017-07-25T14:20:11.905Z,23.20
2017-07-25T14:22:38.285Z,23.20
2017-07-25T14:25:04.611Z,23.20
2017-07-25T14:27:30.977Z,23.20
2017-07-25T14:29:57.372Z,23.21
2017-07-25T14:32:24.612Z,23.21
2017-07-25T14:34:51.028Z,23.22
2017-07-25T14:37:17.392Z,23.24
2017-07-25T14:39:43.776Z,23.25
2017-07-25T14:42:10.139Z,23.25
2017-07-25T14:44:36.495Z,23.25
2017-07-25T14:47:03.658Z,23.25
2017-07-25T14:49:30.802Z,23.26
2017-07-25T14:51:57.173Z,23.27
2017-07-25T14:54:24.348Z,23.27
2017-07-25T14:56:51.500Z,23.27
2017-07-25T14:59:17.872Z,23.28
2017-07-25T15:01:45.036Z,23.27
2017-07-25T15:04:12.175Z,23.28
2017-07-25T15:06:38.506Z,23.30
2017-07-25T15:09:04.868Z,23.30
2017-07-25T15:11:31.246Z,23.30
2017-07-25T15:13:58.394Z,23.30
2017-07-25T15:16:24.760Z,23.30
2017-07-25T15:18:51.126Z,23.31
2017-07-25T15:21:17.493Z,23.32
2017-07-25T15:23:43.904Z,23.36
2017-07-25T15:26:10.297Z,23.36
2017-07-25T15:28:36.659Z,23.34
2017-07-25T15:31:03.068Z,23.36
2017-07-25T15:33:30.201Z,23.37
2017-07-25T15:35:56.584Z,23.37
2017-07-25T15:38:23.823Z,23.35
2017-07-25T15:40:50.208Z,23.37
2017-07-25T15:43:16.598Z,23.38
2017-07-25T15:45:42.977Z,23.37
2017-07-25T15:48:09.359Z,23.35
2017-07-25T15:50:36.495Z,23.34
2017-07-25T15:53:02.858Z,23.35
2017-07-25T15:55:29.244Z,23.34
2017-07-25T15:57:55.639Z,23.34
2017-07-25T16:00:22.028Z,23.33
2017-07-25T16:02:48.428Z,23.33
2017-07-25T16:05:14.812Z,23.33
2017-07-25T16:07:41.243Z,23.33
2017-07-25T16:10:07.630Z,23.33
2017-07-25T16:12:34.004Z,23.32
2017-07-25T16:15:00.387Z,23.32
2017-07-25T16:17:26.773Z,23.32
2017-07-25T16:19:53.899Z,23.31
2017-07-25T16:22:20.322Z,23.31
2017-07-25T16:24:46.685Z,23.31
2017-07-25T16:27:13.050Z,23.30
2017-07-25T16:32:12.010Z,23.29
2017-07-25T16:34:38.387Z,23.29
2017-07-25T16:37:04.756Z,23.29
2017-07-25T16:39:31.130Z,23.29
2017-07-25T16:41:57.499Z,23.28
2017-07-25T16:44:23.870Z,23.28
2017-07-25T16:46:50.287Z,23.27
2017-07-25T16:49:16.664Z,23.27
2017-07-25T16:51:43.023Z,23.27
2017-07-25T16:54:10.190Z,23.26
2017-07-25T16:56:37.493Z,23.26
2017-07-25T16:59:03.896Z,23.26
2017-07-25T17:01:30.275Z,23.26
2017-07-25T17:03:57.411Z,23.25
2017-07-25T17:06:23.792Z,23.25
2017-07-25T17:08:50.167Z,23.24
2017-07-25T17:11:16.559Z,23.24
2017-07-25T17:13:42.926Z,23.24
2017-07-25T17:16:09.311Z,23.24
2017-07-25T17:18:35.708Z,23.22
2017-07-25T17:21:02.085Z,23.22
2017-07-25T17:23:29.240Z,23.23
2017-07-25T17:25:55.609Z,23.25
2017-07-25T17:28:22.003Z,23.23
2017-07-25T17:30:48.377Z,23.23
2017-07-25T17:33:14.747Z,23.25
2017-07-25T17:35:41.308Z,23.28
2017-07-25T17:38:07.680Z,23.25
2017-07-25T17:40:34.047Z,23.24
2017-07-25T17:43:00.426Z,23.24
2017-07-25T17:45:26.796Z,23.23
2017-07-25T17:47:53.972Z,23.21
2017-07-25T17:50:21.111Z,23.22
2017-07-25T17:52:47.467Z,23.21
2017-07-25T17:55:13.852Z,23.23
2017-07-25T17:57:40.219Z,23.30
2017-07-25T18:00:06.595Z,23.34
2017-07-25T18:02:32.975Z,23.36
2017-07-25T18:04:59.340Z,23.37
2017-07-25T18:07:25.710Z,23.38
2017-07-25T18:09:52.095Z,23.39
2017-07-25T18:12:18.481Z,23.41
2017-07-25T18:14:45.627Z,23.43
2017-07-25T18:17:12.008Z,23.44
2017-07-25T18:19:38.376Z,23.46
2017-07-25T18:22:04.741Z,23.51
2017-07-25T18:24:31.111Z,23.54
2017-07-25T18:26:57.475Z,23.54
2017-07-25T18:29:23.850Z,23.53
2017-07-25T18:31:50.240Z,23.51
2017-07-25T18:34:16.623Z,23.52
2017-07-25T18:36:42.999Z,23.52
2017-07-25T18:39:09.724Z,23.51
2017-07-25T18:41:36.224Z,23.51
2017-07-25T18:44:02.600Z,23.51
2017-07-25T18:46:28.998Z,23.50
2017-07-25T18:48:56.142Z,23.50
2017-07-25T18:51:22.527Z,23.51
2017-07-25T18:53:49.659Z,23.51
2017-07-25T18:56:16.940Z,23.50
2017-07-25T18:58:43.326Z,23.50
2017-07-25T19:01:09.737Z,23.50
2017-07-25T19:03:36.200Z,23.50
2017-07-25T19:06:02.691Z,23.50
2017-07-25T19:08:29.136Z,23.50
2017-07-25T19:10:55.537Z,23.50
2017-07-25T19:13:21.928Z,23.50
2017-07-25T19:15:48.414Z,23.50
2017-07-25T19:18:14.921Z,23.49
2017-07-25T19:20:41.475Z,23.49
2017-07-25T19:23:08.658Z,23.50
2017-07-25T19:25:35.064Z,23.49
2017-07-25T19:28:01.480Z,23.50
2017-07-25T19:30:28.033Z,23.49
2017-07-25T19:32:54.621Z,23.49
2017-07-25T19:35:21.032Z,23.49
2017-07-25T19:37:47.432Z,23.50
2017-07-25T19:40:13.973Z,23.50
2017-07-25T19:42:41.139Z,23.51
2017-07-25T19:45:07.551Z,23.51
2017-07-25T19:47:33.944Z,23.52
2017-07-25T19:50:00.589Z,23.52
2017-07-25T19:52:27.936Z,23.54
2017-07-25T19:54:54.381Z,23.54
2017-07-25T19:57:20.866Z,23.55
2017-07-25T19:59:48.188Z,23.56
2017-07-25T20:02:14.596Z,23.56
2017-07-25T20:04:41.001Z,23.53
2017-07-25T20:07:07.467Z,23.50
2017-07-25T20:09:33.839Z,23.48
2017-07-25T20:12:00.236Z,23.47
2017-07-25T20:14:26.615Z,23.46
2017-07-25T20:16:53.005Z,23.45
2017-07-25T20:19:19.562Z,23.43
2017-07-25T20:21:45.939Z,23.42
2017-07-25T20:24:12.341Z,23.42
2017-07-25T20:26:38.750Z,23.42
2017-07-25T20:29:05.125Z,23.41
2017-07-25T20:31:31.522Z,23.40
2017-07-25T20:33:57.910Z,23.40
2017-07-25T20:36:24.277Z,23.39
2017-07-25T20:38:50.680Z,23.40
2017-07-25T20:41:17.804Z,23.38
2017-07-25T20:43:44.180Z,23.38
2017-07-25T20:46:10.557Z,23.38
2017-07-25T20:48:36.932Z,23.37
2017-07-25T20:51:03.310Z,23.37
2017-07-25T20:53:29.702Z,23.36
2017-07-25T20:55:56.123Z,23.36
2017-07-25T20:58:23.279Z,23.36
2017-07-25T21:00:49.721Z,23.36
2017-07-25T21:03:16.127Z,23.35
2017-07-25T21:05:42.511Z,23.35
2017-07-25T21:08:08.919Z,23.34
2017-07-25T21:10:35.292Z,23.35
2017-07-25T21:13:01.664Z,23.33
2017-07-25T21:15:28.028Z,23.33
2017-07-25T21:17:54.399Z,23.34
2017-07-25T21:20:20.795Z,23.36
2017-07-25T21:22:47.176Z,23.36
2017-07-25T21:25:13.656Z,23.34
2017-07-25T21:27:40.183Z,23.32
2017-07-25T21:30:08.411Z,23.31
2017-07-25T21:32:34.977Z,23.30
2017-07-25T21:35:02.358Z,23.30
2017-07-25T21:37:30.135Z,23.29
2017-07-25T21:39:56.575Z,23.28
2017-07-25T21:42:23.077Z,23.28
2017-07-25T21:44:49.646Z,23.28
2017-07-25T21:47:16.096Z,23.27
2017-07-25T21:49:42.641Z,23.27
2017-07-25T21:52:09.019Z,23.26
2017-07-25T21:54:35.386Z,23.26
2017-07-25T21:57:01.779Z,23.25
2017-07-25T21:59:28.140Z,23.25
2017-07-25T22:01:54.503Z,23.24
2017-07-25T22:04:21.091Z,23.23
2017-07-25T22:06:48.239Z,23.23
2017-07-25T22:09:14.623Z,23.22
2017-07-25T22:11:41.035Z,23.22
2017-07-25T22:14:07.441Z,23.20
2017-07-25T22:16:33.832Z,23.20
2017-07-25T22:19:00.232Z,23.20
2017-07-25T22:21:26.602Z,23.20
2017-07-25T22:23:52.994Z,23.19
2017-07-25T22:26:19.376Z,23.19
2017-07-25T22:28:45.750Z,23.19
2017-07-25T22:31:12.195Z,23.19
2017-07-25T22:33:38.711Z,23.19
2017-07-25T22:36:05.492Z,23.18
2017-07-25T22:38:31.939Z,23.18
2017-07-25T22:40:58.319Z,23.17
2017-07-25T22:43:24.691Z,23.17
2017-07-25T22:45:51.077Z,23.16
2017-07-25T22:48:17.439Z,23.16
2017-07-25T22:50:43.977Z,23.15
2017-07-25T22:53:11.106Z,23.15
2017-07-25T22:55:37.475Z,23.14
2017-07-25T22:58:04.607Z,23.14
2017-07-25T23:00:30.974Z,23.14
2017-07-25T23:02:57.383Z,23.15
2017-07-25T23:05:23.752Z,23.13
2017-07-25T23:07:50.135Z,23.13
2017-07-25T23:10:16.536Z,23.13
2017-07-25T23:12:42.903Z,23.13
2017-07-25T23:15:09.287Z,23.12
2017-07-25T23:17:35.650Z,23.11
2017-07-25T23:20:02.800Z,23.11
2017-07-25T23:22:29.162Z,23.10
2017-07-25T23:24:56.329Z,23.10
2017-07-25T23:27:23.467Z,23.10
2017-07-25T23:29:49.820Z,23.09
2017-07-25T23:32:16.208Z,23.09
2017-07-25T23:34:43.343Z,23.09
2017-07-25T23:37:09.725Z,23.09
2017-07-25T23:39:36.870Z,23.09
2017-07-25T23:42:03.224Z,23.08
2017-07-25T23:44:30.386Z,23.08
2017-07-25T23:46:56.741Z,23.08
2017-07-25T23:49:23.114Z,23.07
2017-07-25T23:51:49.482Z,23.07
2017-07-25T23:54:15.883Z,23.07
2017-07-25T23:56:42.235Z,23.07
2017-07-25T23:59:08.592Z,23.07
